createdAt,value
2023-03-30T00:02:14.054Z,100523.16
2023-03-30T00:04:46.026Z,100511.88
2023-03-30T00:07:17.552Z,100525.38
2023-03-30T00:09:49.350Z,100526.19
2023-03-30T00:12:20.889Z,100519.25
2023-03-30T00:14:52.773Z,100512.31
2023-03-30T00:17:24.251Z,100516.38
2023-03-30T00:19:55.743Z,100508.84
2023-03-30T00:22:27.220Z,100507.22
2023-03-30T00:24:58.701Z,100501.28
2023-03-30T00:27:30.177Z,100499.28
2023-03-30T00:30:01.688Z,100500.91
2023-03-30T00:32:33.198Z,100492.78
2023-03-30T00:35:05.005Z,100489.50
2023-03-30T00:37:36.470Z,100486.25
2023-03-30T00:40:08.257Z,100477.91
2023-03-30T00:42:39.708Z,100475.63
2023-03-30T00:45:11.551Z,100475.25
2023-03-30T00:47:43.037Z,100464.75
2023-03-30T00:50:14.833Z,100463.78
2023-03-30T00:52:46.345Z,100460.69
2023-03-30T00:55:18.210Z,100448.59
2023-03-30T00:57:49.672Z,100442.47
2023-03-30T01:00:21.486Z,100437.56
2023-03-30T01:02:53.027Z,100442.06
2023-03-30T01:05:25.009Z,100430.78
2023-03-30T01:07:56.497Z,100426.78
2023-03-30T01:10:28.301Z,100422.09
2023-03-30T01:12:59.773Z,100414.94
2023-03-30T01:15:31.588Z,100409.63
2023-03-30T01:18:03.131Z,100401.28
2023-03-30T01:20:35.029Z,100395.16
2023-03-30T01:23:06.483Z,100394.19
2023-03-30T01:25:38.274Z,100400.00
2023-03-30T01:28:09.790Z,100391.47
2023-03-30T01:30:41.833Z,100389.78
2023-03-30T01:33:13.290Z,100386.06
2023-03-30T01:35:44.825Z,100379.72
2023-03-30T01:38:16.373Z,100376.84
2023-03-30T01:40:47.849Z,100377.47
2023-03-30T01:43:19.324Z,100367.88
2023-03-30T01:45:51.026Z,100352.38
2023-03-30T01:48:22.510Z,100348.50
2023-03-30T01:50:54.062Z,100351.22
2023-03-30T01:53:25.532Z,100348.78
2023-03-30T01:55:57.046Z,100348.94
2023-03-30T01:58:28.506Z,100353.66
2023-03-30T02:00:59.981Z,100345.47
2023-03-30T02:03:31.638Z,100353.66
2023-03-30T02:06:03.521Z,100354.47
2023-03-30T02:08:35.005Z,100370.66
2023-03-30T02:11:07.004Z,100363.88
2023-03-30T02:13:38.683Z,100353.84
2023-03-30T02:16:10.542Z,100341.41
2023-03-30T02:18:42.034Z,100343.63
2023-03-30T02:21:13.873Z,100339.94
2023-03-30T02:23:45.407Z,100333.59
2023-03-30T02:26:17.321Z,100329.47
2023-03-30T02:28:48.790Z,100318.41
2023-03-30T02:31:20.644Z,100314.66
2023-03-30T02:33:52.167Z,100317.47
2023-03-30T02:36:24.039Z,100315.47
2023-03-30T02:38:55.543Z,100311.78
2023-03-30T02:41:27.382Z,100295.09
2023-03-30T02:43:58.859Z,100296.13
2023-03-30T02:46:30.516Z,100287.25
2023-03-30T02:49:02.002Z,100272.94
2023-03-30T02:51:33.985Z,100282.25
2023-03-30T02:54:05.441Z,100284.09
2023-03-30T02:56:37.135Z,100280.63
2023-03-30T02:59:08.623Z,100279.44
2023-03-30T03:01:40.368Z,100284.16
2023-03-30T03:04:11.854Z,100275.38
2023-03-30T03:06:43.661Z,100266.97
2023-03-30T03:09:15.155Z,100269.41
2023-03-30T03:11:47.006Z,100261.00
2023-03-30T03:14:18.476Z,100263.34
2023-03-30T03:16:50.298Z,100257.75
2023-03-30T03:19:21.782Z,100252.06
2023-03-30T03:21:53.616Z,100262.75
2023-03-30T03:24:25.099Z,100257.06
2023-03-30T03:26:56.569Z,100246.22
2023-03-30T03:29:28.034Z,100243.63
2023-03-30T03:31:59.507Z,100250.19
2023-03-30T03:34:30.973Z,100248.56
2023-03-30T03:37:02.818Z,100236.31
2023-03-30T03:39:34.292Z,100229.97
2023-03-30T03:42:05.973Z,100227.75
2023-03-30T03:44:37.432Z,100218.16
2023-03-30T03:47:08.916Z,100209.13
2023-03-30T03:49:40.393Z,100201.31
2023-03-30T03:52:12.204Z,100191.94
2023-03-30T03:54:43.659Z,100190.69
2023-03-30T03:57:15.503Z,100185.97
2023-03-30T03:59:46.980Z,100195.56
2023-03-30T04:02:19.466Z,100185.16
2023-03-30T04:04:52.200Z,100173.72
2023-03-30T04:07:23.974Z,100173.25
2023-03-30T04:09:55.434Z,100165.06
2023-03-30T04:12:27.289Z,100162.63
2023-03-30T04:14:58.757Z,100160.66
2023-03-30T04:17:30.568Z,100160.56
2023-03-30T04:20:02.029Z,100160.56
2023-03-30T04:22:33.762Z,100153.03
2023-03-30T04:25:05.311Z,100157.84
2023-03-30T04:27:37.219Z,100154.16
2023-03-30T04:30:08.674Z,100161.16
2023-03-30T04:32:40.598Z,100148.31
2023-03-30T04:35:12.075Z,100149.72
2023-03-30T04:37:43.775Z,100154.22
2023-03-30T04:40:15.249Z,100145.22
2023-03-30T04:42:47.037Z,100148.03
2023-03-30T04:45:18.509Z,100147.56
2023-03-30T04:47:50.380Z,100140.78
2023-03-30T04:50:21.914Z,100141.81
2023-03-30T04:52:53.635Z,100135.78
2023-03-30T04:55:25.097Z,100140.50
2023-03-30T04:57:56.584Z,100143.53
2023-03-30T05:00:28.063Z,100152.59
2023-03-30T05:02:59.690Z,100151.72
2023-03-30T05:05:31.255Z,100147.56
2023-03-30T05:08:03.142Z,100139.16
2023-03-30T05:10:34.597Z,100123.81
2023-03-30T05:13:06.429Z,100123.94
2023-03-30T05:15:37.896Z,100107.34
2023-03-30T05:18:09.641Z,100108.81
2023-03-30T05:20:41.236Z,100101.69
2023-03-30T05:23:12.862Z,100081.47
2023-03-30T05:25:44.326Z,100073.44
2023-03-30T05:28:16.069Z,100076.59
2023-03-30T05:30:47.524Z,100078.22
2023-03-30T05:33:19.365Z,100066.63
2023-03-30T05:35:50.888Z,100085.84
2023-03-30T05:38:22.673Z,100091.25
2023-03-30T05:40:54.156Z,100094.03
2023-03-30T05:43:26.034Z,100090.25
2023-03-30T05:45:57.498Z,100085.75
2023-03-30T05:48:29.248Z,100087.72
2023-03-30T05:51:02.451Z,100082.94
2023-03-30T05:53:34.532Z,100078.44
2023-03-30T05:56:06.380Z,100084.56
2023-03-30T05:58:37.845Z,99879.47
2023-03-30T06:01:09.714Z,100076.94
2023-03-30T06:03:41.321Z,100069.22
2023-03-30T06:06:13.150Z,100066.03
2023-03-30T06:08:44.614Z,100064.91
2023-03-30T06:11:16.086Z,100061.59
2023-03-30T06:13:47.551Z,100049.91
2023-03-30T06:16:19.399Z,100057.88
2023-03-30T06:18:51.110Z,100051.75
2023-03-30T06:21:23.096Z,100049.69
2023-03-30T06:23:54.551Z,100038.50
2023-03-30T06:26:26.193Z,100033.50
2023-03-30T06:28:57.677Z,100040.34
2023-03-30T06:31:29.583Z,100035.94
2023-03-30T06:34:01.083Z,100042.19
2023-03-30T06:36:44.362Z,100039.75
2023-03-30T06:39:16.798Z,100044.81
2023-03-30T06:41:48.474Z,100043.00
2023-03-30T06:44:19.962Z,100045.69
2023-03-30T06:46:51.600Z,100038.44
2023-03-30T06:49:23.060Z,100036.84
2023-03-30T06:51:54.539Z,100043.97
2023-03-30T06:54:26.059Z,100032.38
2023-03-30T06:56:57.571Z,100029.69
2023-03-30T06:59:29.040Z,100029.75
2023-03-30T07:02:00.497Z,100023.31
2023-03-30T07:04:32.013Z,100017.22
2023-03-30T07:07:03.849Z,100022.75
2023-03-30T07:09:35.298Z,100013.22
2023-03-30T07:12:07.147Z,100010.53
2023-03-30T07:14:38.604Z,100001.88
2023-03-30T07:17:10.473Z,99999.84
2023-03-30T07:19:42.025Z,99988.22
2023-03-30T07:22:13.726Z,99992.13
2023-03-30T07:24:45.178Z,99985.41
2023-03-30T07:27:17.016Z,99988.44
2023-03-30T07:29:48.475Z,99989.81
2023-03-30T07:32:20.250Z,99983.88
2023-03-30T07:34:51.730Z,99969.75
2023-03-30T07:37:23.514Z,99977.06
2023-03-30T07:39:55.009Z,99977.53
2023-03-30T07:42:26.695Z,99980.34
2023-03-30T07:44:58.135Z,99975.72
2023-03-30T07:47:29.950Z,99978.47
2023-03-30T07:50:01.407Z,99958.88
2023-03-30T07:52:33.201Z,99961.94
2023-03-30T07:55:04.653Z,99959.41
2023-03-30T07:57:36.124Z,99967.44
2023-03-30T08:00:07.728Z,99964.78
2023-03-30T08:02:39.721Z,99967.13
2023-03-30T08:05:11.338Z,99971.63
2023-03-30T08:07:43.252Z,99836.06
2023-03-30T08:10:14.736Z,99961.19
2023-03-30T08:12:46.518Z,99963.63
2023-03-30T08:15:18.025Z,99960.38
2023-03-30T08:17:49.852Z,99957.16
2023-03-30T08:20:21.341Z,99961.16
2023-03-30T08:22:53.165Z,99949.59
2023-03-30T08:25:24.641Z,99951.69
2023-03-30T08:27:56.108Z,99945.38
2023-03-30T08:30:27.550Z,99937.81
2023-03-30T08:32:59.061Z,99930.31
2023-03-30T08:35:30.574Z,99932.06
2023-03-30T08:38:02.220Z,99932.94
2023-03-30T08:40:33.679Z,99929.25
2023-03-30T08:43:05.535Z,99919.97
2023-03-30T08:45:37.431Z,99930.84
2023-03-30T08:48:10.299Z,99940.44
2023-03-30T08:50:41.772Z,99939.28
2023-03-30T08:53:13.586Z,99943.59
2023-03-30T08:55:45.116Z,99927.31
2023-03-30T08:58:16.777Z,99930.44
2023-03-30T09:00:48.238Z,99933.66
2023-03-30T09:03:20.252Z,99922.47
2023-03-30T09:05:51.814Z,99928.22
2023-03-30T09:08:23.734Z,99932.13
2023-03-30T09:10:55.264Z,99928.66
2023-03-30T09:13:27.107Z,99929.13
2023-03-30T09:15:58.573Z,99930.22
2023-03-30T09:18:30.245Z,99939.34
2023-03-30T09:21:01.728Z,99924.78
2023-03-30T09:23:33.565Z,99923.63
2023-03-30T09:26:04.995Z,99922.97
2023-03-30T09:28:36.873Z,99916.53
2023-03-30T09:31:08.762Z,99910.69
2023-03-30T09:33:40.920Z,99925.06
2023-03-30T09:36:12.409Z,99912.97
2023-03-30T09:38:44.127Z,99920.53
2023-03-30T09:41:15.585Z,99933.56
2023-03-30T09:43:47.260Z,99923.78
2023-03-30T09:46:18.717Z,99926.47
2023-03-30T09:48:50.570Z,99929.66
2023-03-30T09:51:22.024Z,99924.72
2023-03-30T09:53:54.065Z,99926.00
2023-03-30T09:56:25.508Z,99926.56
2023-03-30T09:58:56.985Z,99921.50
2023-03-30T10:01:28.508Z,99922.38
2023-03-30T10:04:00.236Z,99926.88
2023-03-30T10:06:31.870Z,99923.59
2023-03-30T10:09:03.537Z,99925.06
2023-03-30T10:11:35.001Z,99932.44
2023-03-30T10:14:06.828Z,99926.00
2023-03-30T10:16:38.330Z,99928.16
2023-03-30T10:19:10.152Z,99931.09
2023-03-30T10:21:41.618Z,99936.78
2023-03-30T10:24:13.272Z,99936.78
2023-03-30T10:26:44.729Z,99949.09
2023-03-30T10:29:16.478Z,99942.13
2023-03-30T10:31:48.006Z,99946.69
2023-03-30T10:34:19.854Z,99933.00
2023-03-30T10:36:53.240Z,99931.13
2023-03-30T10:39:26.446Z,99923.59
2023-03-30T10:41:59.888Z,99934.19
2023-03-30T10:44:31.997Z,99918.66
2023-03-30T10:47:03.480Z,99915.78
2023-03-30T10:49:35.227Z,99904.66
2023-03-30T10:52:06.720Z,99907.44
2023-03-30T10:54:38.201Z,99912.97
2023-03-30T10:57:09.700Z,99913.31
2023-03-30T10:59:41.797Z,99915.91
2023-03-30T11:02:13.232Z,99916.53
2023-03-30T11:04:44.707Z,99914.31
2023-03-30T11:07:16.163Z,99907.91
2023-03-30T11:09:47.811Z,99908.19
2023-03-30T11:12:19.267Z,99898.22
2023-03-30T11:14:50.716Z,99906.31
2023-03-30T11:17:22.182Z,99905.41
2023-03-30T11:19:53.970Z,99901.97
2023-03-30T11:22:25.425Z,99904.94
2023-03-30T11:24:56.984Z,99901.06
2023-03-30T11:27:28.428Z,99899.81
2023-03-30T11:29:59.917Z,99901.44
2023-03-30T11:32:31.482Z,99902.16
2023-03-30T11:35:03.402Z,99897.38
2023-03-30T11:37:34.863Z,99896.13
2023-03-30T11:40:06.318Z,99899.06
2023-03-30T11:42:38.105Z,99886.09
2023-03-30T11:45:09.575Z,99878.50
2023-03-30T11:47:41.359Z,99857.41
2023-03-30T11:50:12.843Z,99866.03
2023-03-30T11:52:44.617Z,99854.63
2023-03-30T11:55:16.121Z,99852.19
2023-03-30T11:57:47.947Z,99846.19
2023-03-30T12:00:19.395Z,99843.13
2023-03-30T12:02:51.259Z,99830.31
2023-03-30T12:05:22.805Z,99820.28
2023-03-30T12:07:54.262Z,99828.34
2023-03-30T12:10:25.707Z,99813.47
2023-03-30T12:12:57.153Z,99811.47
2023-03-30T12:15:28.608Z,99810.13
2023-03-30T12:18:00.145Z,99803.88
2023-03-30T12:20:31.640Z,99799.72
2023-03-30T12:23:03.388Z,99789.97
2023-03-30T12:25:34.826Z,99766.44
2023-03-30T12:28:06.794Z,99782.75
2023-03-30T12:30:38.260Z,99769.41
2023-03-30T12:33:10.086Z,99766.63
2023-03-30T12:35:41.753Z,99769.03
2023-03-30T12:38:13.475Z,99767.09
2023-03-30T12:40:44.939Z,99762.44
2023-03-30T12:43:16.721Z,99749.06
2023-03-30T12:45:48.228Z,99734.69
2023-03-30T12:48:19.913Z,99729.41
2023-03-30T12:50:51.320Z,99734.66
2023-03-30T12:53:23.087Z,99732.13
2023-03-30T12:55:54.525Z,99717.56
2023-03-30T12:58:26.314Z,99716.34
2023-03-30T13:00:57.906Z,99710.88
2023-03-30T13:03:29.926Z,99707.47
2023-03-30T13:06:01.494Z,99694.94
2023-03-30T13:08:33.406Z,99702.63
2023-03-30T13:11:04.900Z,99708.38
2023-03-30T13:13:36.792Z,99703.59
2023-03-30T13:16:08.506Z,99690.91
2023-03-30T13:18:40.512Z,99679.09
2023-03-30T13:21:12.076Z,99663.88
2023-03-30T13:23:43.707Z,99688.53
2023-03-30T13:26:21.818Z,99681.16
2023-03-30T13:28:59.910Z,99673.75
2023-03-30T13:31:31.366Z,99675.44
2023-03-30T13:34:03.199Z,99676.53
2023-03-30T13:36:34.657Z,99674.75
2023-03-30T13:39:06.550Z,99671.38
2023-03-30T13:41:38.053Z,99679.16
2023-03-30T13:44:09.985Z,99670.25
2023-03-30T13:46:41.515Z,99683.34
2023-03-30T13:49:13.353Z,99688.03
2023-03-30T13:51:44.816Z,99689.59
2023-03-30T13:54:16.648Z,99688.66
2023-03-30T13:56:48.152Z,99696.47
2023-03-30T13:59:19.783Z,99760.41
2023-03-30T14:01:51.304Z,99798.81
2023-03-30T14:04:23.117Z,99803.50
2023-03-30T14:06:54.555Z,99810.97
2023-03-30T14:09:26.426Z,99812.41
2023-03-30T14:11:57.890Z,99824.16
2023-03-30T14:14:29.747Z,99823.50
2023-03-30T14:17:01.315Z,99817.31
2023-03-30T14:19:33.135Z,99822.84
2023-03-30T14:22:04.588Z,99814.69
2023-03-30T14:24:36.434Z,99824.28
2023-03-30T14:27:07.885Z,99837.09
2023-03-30T14:29:39.759Z,99839.09
2023-03-30T14:32:13.440Z,99820.94
2023-03-30T14:34:46.152Z,99808.25
2023-03-30T14:37:19.708Z,99798.56
2023-03-30T14:39:52.903Z,99799.50
2023-03-30T14:42:24.449Z,99807.69
2023-03-30T14:44:55.924Z,99819.03
2023-03-30T14:47:27.445Z,99815.41
2023-03-30T14:49:58.923Z,99817.47
2023-03-30T14:52:30.497Z,99814.09
2023-03-30T14:55:06.748Z,99820.09
2023-03-30T14:57:39.681Z,99820.16
2023-03-30T15:00:11.318Z,99824.38
2023-03-30T15:02:42.809Z,99822.78
2023-03-30T15:05:14.468Z,99825.00
2023-03-30T15:07:45.948Z,99820.34
2023-03-30T15:10:17.756Z,99821.66
2023-03-30T15:12:49.214Z,99820.53
2023-03-30T15:15:21.087Z,99835.25
2023-03-30T15:17:52.592Z,99839.28
2023-03-30T15:20:24.376Z,99836.69
2023-03-30T15:22:55.820Z,99837.38
2023-03-30T15:25:27.714Z,99840.47
2023-03-30T15:27:59.147Z,99831.09
2023-03-30T15:30:30.903Z,99824.88
2023-03-30T15:33:02.443Z,99839.66
2023-03-30T15:35:34.377Z,99838.53
2023-03-30T15:38:05.847Z,99841.28
2023-03-30T15:40:37.674Z,99855.31
2023-03-30T15:43:09.115Z,99852.16
2023-03-30T15:45:40.934Z,99849.88
2023-03-30T15:48:12.410Z,99854.53
2023-03-30T15:50:44.274Z,99854.53
2023-03-30T15:53:15.741Z,99855.66
2023-03-30T15:55:47.588Z,99855.59
2023-03-30T15:58:19.045Z,99856.28
2023-03-30T16:00:50.667Z,99859.09
2023-03-30T16:03:22.114Z,99854.00
2023-03-30T16:05:53.973Z,99849.81
2023-03-30T16:08:25.427Z,99851.38
2023-03-30T16:10:56.908Z,99849.63
2023-03-30T16:13:28.345Z,99853.75
2023-03-30T16:15:59.903Z,99858.03
2023-03-30T16:18:31.439Z,99852.34
2023-03-30T16:21:03.450Z,99853.88
2023-03-30T16:23:35.235Z,99858.75
2023-03-30T16:26:07.172Z,99858.78
2023-03-30T16:28:40.802Z,99860.19
2023-03-30T16:31:14.547Z,99861.19
2023-03-30T16:33:46.010Z,99863.53
2023-03-30T16:36:17.733Z,99871.13
2023-03-30T16:38:49.186Z,99874.44
2023-03-30T16:41:20.869Z,99863.94
2023-03-30T16:43:52.315Z,99878.31
2023-03-30T16:46:24.093Z,99873.28
2023-03-30T16:48:55.564Z,99875.25
2023-03-30T16:51:27.391Z,99875.50
2023-03-30T16:53:58.845Z,99878.13
2023-03-30T16:56:30.690Z,99863.19
2023-03-30T16:59:02.136Z,99872.50
2023-03-30T17:01:33.863Z,99875.34
2023-03-30T17:04:05.413Z,99866.53
2023-03-30T17:06:37.069Z,99875.19
2023-03-30T17:09:08.601Z,99877.31
2023-03-30T17:11:40.459Z,99878.97
2023-03-30T17:14:11.886Z,99874.19
2023-03-30T17:16:43.665Z,99868.53
2023-03-30T17:19:15.485Z,99878.72
2023-03-30T17:21:46.942Z,99885.47
2023-03-30T17:24:18.741Z,99886.69
2023-03-30T17:26:50.197Z,99884.44
2023-03-30T17:29:21.849Z,99902.47
2023-03-30T17:31:53.301Z,99905.22
2023-03-30T17:34:25.143Z,99909.19
2023-03-30T17:36:56.605Z,99915.97
2023-03-30T17:39:28.341Z,99918.56
2023-03-30T17:41:59.790Z,99915.56
2023-03-30T17:44:31.496Z,99920.84
2023-03-30T17:47:02.955Z,99927.63
2023-03-30T17:49:34.953Z,99928.13
2023-03-30T17:52:06.418Z,99919.00
2023-03-30T17:54:37.884Z,99928.38
2023-03-30T17:57:09.360Z,99928.63
2023-03-30T17:59:41.117Z,99929.56
2023-03-30T18:02:12.689Z,99934.09
2023-03-30T18:04:44.207Z,99937.56
2023-03-30T18:07:15.654Z,99933.91
2023-03-30T18:09:47.483Z,99933.59
2023-03-30T18:12:18.959Z,99933.34
2023-03-30T18:14:50.470Z,99936.81
2023-03-30T18:17:21.944Z,99933.13
2023-03-30T18:19:53.595Z,99933.28
2023-03-30T18:22:25.072Z,99947.25
2023-03-30T18:24:56.516Z,99949.66
2023-03-30T18:27:27.972Z,99936.81
2023-03-30T18:29:59.471Z,99937.50
2023-03-30T18:32:44.275Z,99942.75
2023-03-30T18:35:18.355Z,99943.72
2023-03-30T18:37:49.786Z,99930.28
2023-03-30T18:40:21.815Z,99934.50
2023-03-30T18:42:53.276Z,99949.34
2023-03-30T18:45:25.073Z,99953.28
2023-03-30T18:47:56.589Z,99958.88
2023-03-30T18:50:28.534Z,99960.97
2023-03-30T18:53:00.004Z,99965.16
2023-03-30T18:55:31.484Z,99966.28
2023-03-30T18:58:02.971Z,99968.38
2023-03-30T19:00:34.679Z,99978.56
2023-03-30T19:03:06.252Z,99979.72
2023-03-30T19:05:38.279Z,99974.38
2023-03-30T19:08:09.772Z,99979.72
2023-03-30T19:10:41.619Z,99981.00
2023-03-30T19:13:13.137Z,99977.47
2023-03-30T19:15:45.042Z,99974.56
2023-03-30T19:18:16.503Z,99976.84
2023-03-30T19:20:47.988Z,99993.97
2023-03-30T19:23:19.481Z,99989.34
2023-03-30T19:25:51.295Z,100013.66
2023-03-30T19:28:23.835Z,100047.03
2023-03-30T19:30:55.373Z,100049.84
2023-03-30T19:33:26.836Z,100045.22
2023-03-30T19:35:58.335Z,100036.97
2023-03-30T19:38:29.893Z,100042.66
2023-03-30T19:41:01.403Z,100041.38
2023-03-30T19:43:32.878Z,100048.00
2023-03-30T19:46:04.692Z,100047.19
2023-03-30T19:48:36.166Z,100037.78
2023-03-30T19:51:08.185Z,100036.88
2023-03-30T19:53:39.852Z,100035.06
2023-03-30T19:56:11.714Z,100031.03
2023-03-30T19:58:43.234Z,100033.69
2023-03-30T20:01:15.132Z,100036.00
2023-03-30T20:03:46.681Z,100044.63
2023-03-30T20:06:18.594Z,100040.09
2023-03-30T20:08:50.064Z,100035.03
2023-03-30T20:11:21.869Z,100046.50
2023-03-30T20:13:53.365Z,100045.66
2023-03-30T20:16:25.285Z,100045.66
2023-03-30T20:18:56.796Z,100050.88
2023-03-30T20:21:28.334Z,100056.19
2023-03-30T20:23:59.837Z,100046.69
2023-03-30T20:26:31.656Z,100051.56
2023-03-30T20:29:03.121Z,100052.38
2023-03-30T20:31:35.057Z,100053.75
2023-03-30T20:34:06.548Z,100054.47
2023-03-30T20:36:38.055Z,100054.94
2023-03-30T20:39:09.562Z,100053.31
2023-03-30T20:41:41.128Z,100061.41
2023-03-30T20:44:12.598Z,100053.41
2023-03-30T20:49:36.857Z,99884.53
2023-03-30T20:52:08.696Z,100056.78
2023-03-30T20:54:40.168Z,100054.56
2023-03-30T20:57:12.028Z,100046.94
2023-03-30T20:59:43.534Z,100053.66
2023-03-30T21:02:15.381Z,100046.13
2023-03-30T21:04:46.872Z,100041.59
2023-03-30T21:07:18.579Z,100037.91
2023-03-30T21:09:50.060Z,100033.50
2023-03-30T21:12:21.880Z,100027.38
2023-03-30T21:14:53.359Z,100029.47
2023-03-30T21:17:25.056Z,100037.78
2023-03-30T21:19:56.534Z,100042.53
2023-03-30T21:22:28.345Z,100042.78
2023-03-30T21:24:59.808Z,100035.47
2023-03-30T21:27:31.786Z,100025.63
2023-03-30T21:30:03.276Z,100032.22
2023-03-30T21:32:35.085Z,100034.66
2023-03-30T21:35:06.572Z,100033.03
2023-03-30T21:37:38.394Z,100024.47
2023-03-30T21:40:09.873Z,100019.28
2023-03-30T21:42:41.696Z,100012.44
2023-03-30T21:45:13.160Z,99850.09
2023-03-30T21:47:44.864Z,100016.13
2023-03-30T21:50:16.347Z,100013.25
2023-03-30T21:52:48.035Z,100013.47
2023-03-30T21:55:19.909Z,100014.53
2023-03-30T21:57:51.400Z,100007.00
2023-03-30T22:00:23.236Z,100004.09
2023-03-30T22:02:54.823Z,99999.00
2023-03-30T22:05:26.712Z,99996.94
2023-03-30T22:07:58.236Z,99992.06
2023-03-30T22:10:30.053Z,99996.81
2023-03-30T22:13:01.550Z,99997.41
2023-03-30T22:15:33.275Z,99867.34
2023-03-30T22:18:04.758Z,99994.16
2023-03-30T22:20:36.567Z,99988.25
2023-03-30T22:23:08.032Z,99981.66
2023-03-30T22:25:39.833Z,99981.88
2023-03-30T22:28:11.293Z,99980.03
2023-03-30T22:30:42.774Z,99978.19
2023-03-30T22:33:14.244Z,99980.03
2023-03-30T22:35:46.152Z,99971.25
2023-03-30T22:38:17.670Z,99972.84
2023-03-30T22:40:49.166Z,99971.25
2023-03-30T22:43:20.635Z,99963.81
2023-03-30T22:45:52.471Z,99963.81
2023-03-30T22:48:24.021Z,99960.13
2023-03-30T22:50:55.504Z,99967.41
2023-03-30T22:53:26.968Z,99965.31
2023-03-30T22:55:58.447Z,99969.94
2023-03-30T22:58:29.941Z,99967.97
2023-03-30T23:01:01.470Z,99971.34
2023-03-30T23:03:33.089Z,99968.19
2023-03-30T23:06:05.099Z,99967.50
2023-03-30T23:08:36.797Z,99961.13
2023-03-30T23:11:08.491Z,99956.38
2023-03-30T23:13:39.986Z,99954.50
2023-03-30T23:16:11.919Z,99955.69
2023-03-30T23:18:43.382Z,99948.94
2023-03-30T23:21:15.200Z,99943.94
2023-03-30T23:23:46.681Z,99945.44
2023-03-30T23:26:18.608Z,99944.63
2023-03-30T23:28:50.140Z,99938.50
2023-03-30T23:31:21.924Z,99949.72
2023-03-30T23:33:53.414Z,99949.81
2023-03-30T23:36:25.336Z,99942.88
2023-03-30T23:38:56.857Z,99935.34
2023-03-30T23:41:28.602Z,99936.88
2023-03-30T23:44:00.116Z,99935.22
2023-03-30T23:46:32.061Z,99936.19
2023-03-30T23:49:03.657Z,99936.66
2023-03-30T23:51:35.221Z,99935.53
2023-03-30T23:54:06.690Z,99930.53
2023-03-30T23:56:38.533Z,99926.72
2023-03-30T23:59:09.997Z,99925.25
